Date,TemperatureHighF,TemperatureAvgF,TemperatureLowF,DewpointHighF,DewpointAvgF,DewpointLowF,HumidityHigh,HumidityAvg,HumidityLow,PressureMaxIn,PressureMinIn,WindSpeedMaxMPH,WindSpeedAvgMPH,GustSpeedMaxMPH,PrecipitationSumIn
2013-1-1,36.3,28.7,16.9,23.5,11.5,0.2,64,49,36,29.87,29.64,22,2,23,0.02
2013-1-2,28.1,18.2,8.6,15.0,3.9,-10.4,71,53,41,30.06,29.84,20,2,20,0.00
2013-1-3,25.1,13.1,2.8,7.9,-4.7,-11.6,65,46,20,30.08,29.92,15,1,15,0.00
2013-1-4,37.6,28.5,17.7,22.2,16.6,6.9,74,61,47,29.92,29.75,20,2,20,0.01
2013-1-5,41.6,32.2,20.8,22.2,17.3,11.4,78,55,31,30.21,29.78,15,2,15,0.01
2013-1-6,42.6,31.9,21.3,26.3,22.6,15.5,83,69,48,30.17,29.88,14,1,14,0.00
2013-1-7,36.8,29.8,22.2,26.4,19.3,10.8,88,66,35,30.35,29.90,14,1,14,0.00
2013-1-8,45.2,34.3,24.1,26.5,23.4,19.2,89,66,42,30.31,30.20,19,2,20,0.00
2013-1-9,43.9,34.7,22.2,32.4,25.5,19.2,89,70,44,30.35,29.93,16,1,21,0.00
2013-1-10,46.2,40.4,29.1,25.6,21.3,17.9,70,47,34,30.49,29.96,22,4,25,0.00
2013-1-11,40.1,32.5,24.5,34.7,24.3,19.5,92,72,59,30.47,30.17,4,0,4,0.11
2013-1-12,41.6,39.3,36.8,40.2,37.8,34.7,95,94,92,30.17,30.07,3,0,3,0.03
2013-1-13,51.6,45.7,39.9,48.2,43.9,38.6,96,94,84,30.09,29.92,12,1,14,0.01
2013-1-14,60.9,51.6,40.6,49.8,41.3,23.4,92,70,39,30.19,29.78,18,2,18,0.00
2013-1-15,40.8,36.8,30.9,24.7,22.4,20.6,73,56,46,30.26,30.16,6,0,9,0.00
2013-1-16,32.2,31.4,29.0,30.4,28.0,21.9,93,88,66,30.19,29.76,4,0,4,0.09
2013-1-17,40.8,33.2,27.9,31.7,24.2,6.2,93,71,39,30.04,29.76,15,1,16,0.27
2013-1-18,27.9,20.9,15.4,7.8,-3.1,-11.2,51,35,22,30.39,30.00,19,2,19,0.00
2013-1-19,47.7,35.3,21.3,29.1,17.7,2.3,66,49,33,30.33,29.81,25,4,27,0.07
2013-1-20,52.8,40.3,27.5,30.4,21.6,6.3,68,48,27,29.85,29.46,27,5,32,0.00
2013-1-21,27.5,24.0,19.9,18.3,6.0,-1.6,85,48,32,30.04,29.74,20,1,20,0.00
2013-1-22,23.9,19.1,11.6,17.8,4.8,-5.9,87,56,31,30.02,29.70,20,2,21,0.00
2013-1-23,15.4,10.0,5.4,-3.3,-12.3,-18.3,56,36,22,30.08,30.00,19,2,21,0.00
2013-1-24,18.3,9.5,0.9,-10.9,-14.5,-18.9,51,34,18,30.17,30.00,24,3,24,0.00
2013-1-25,24.2,15.2,6.3,6.2,-11.2,-17.1,61,31,16,30.25,30.01,15,2,16,0.00
2013-1-26,23.0,16.6,11.1,8.1,-3.1,-13.1,77,45,21,30.17,29.95,18,2,19,0.00
2013-1-27,29.4,20.4,13.1,0.0,-3.9,-9.9,54,35,22,30.41,30.17,18,2,26,0.00
2013-1-28,29.7,23.4,16.9,23.2,9.1,-3.6,89,58,24,30.39,29.97,7,0,8,0.00
2013-1-29,33.2,29.1,24.2,30.2,25.1,21.2,91,85,76,30.14,29.97,3,0,3,0.10
2013-1-30,61.0,48.8,32.4,56.0,45.7,30.2,96,89,79,30.10,29.38,27,4,29,0.18
2013-1-31,61.5,46.8,29.4,57.2,33.9,12.9,91,63,30,29.53,28.89,25,6,35,0.52
2013-2-1,32.5,27.6,21.4,15.4,4.5,-0.6,56,37,27,30.02,29.53,18,3,22,0.00
2013-2-2,29.4,24.2,16.1,9.1,2.9,-1.8,54,40,30,30.19,29.99,14,2,16,0.00
2013-2-3,25.7,23.4,19.7,20.3,17.0,8.0,86,77,47,30.00,29.67,7,0,8,0.00
2013-2-4,28.8,23.6,19.7,18.9,7.5,0.2,86,52,30,29.88,29.66,25,2,26,0.00
2013-2-5,30.1,24.4,19.7,20.6,10.0,2.6,83,55,39,29.97,29.88,7,0,9,0.00
2013-2-6,38.0,29.6,22.2,23.1,15.2,0.3,89,59,30,30.24,29.86,18,1,18,0.03
2013-2-7,28.1,22.7,15.1,4.6,-2.7,-6.3,50,33,24,30.48,30.24,12,1,13,0.00
2013-2-8,29.4,23.9,16.7,27.6,19.1,4.6,93,82,42,30.44,29.58,23,2,23,0.00
2013-2-9,19.7,17.3,13.6,16.2,11.3,1.0,88,77,56,30.14,29.55,24,5,24,0.00
2013-2-10,39.2,22.1,7.0,10.6,3.2,-2.9,70,47,17,30.34,30.14,14,1,16,0.23
2013-2-11,39.3,28.4,15.2,37.5,24.1,7.4,94,84,63,30.30,29.55,4,0,4,0.16
2013-2-12,44.9,38.2,33.1,33.9,26.1,23.1,95,62,47,29.81,29.54,26,2,26,0.07
2013-2-13,42.3,34.4,27.0,25.0,21.6,19.8,78,61,42,29.81,29.64,9,1,11,0.00
2013-2-14,45.4,35.3,28.7,24.6,20.3,16.1,76,56,31,29.93,29.64,9,0,10,0.00
2013-2-15,51.7,38.1,29.7,33.2,28.1,20.5,89,69,42,29.93,29.83,21,2,21,0.00
2013-2-16,37.8,33.4,28.8,29.9,24.1,13.2,91,70,46,29.89,29.67,12,1,12,0.02
2013-2-17,29.1,20.2,16.4,15.4,5.9,-3.8,84,56,35,29.67,29.33,25,6,26,0.00
2013-2-18,30.9,22.5,14.4,-0.6,-3.8,-8.1,46,32,19,30.09,29.61,25,4,25,0.00
2013-2-19,46.5,36.2,21.6,41.5,21.2,-1.9,94,57,33,30.11,29.51,12,1,13,0.29
2013-2-20,41.2,31.2,25.8,39.6,16.5,6.6,94,56,33,29.71,29.47,21,3,23,0.01
2013-2-21,31.2,26.4,23.5,13.2,9.8,4.8,61,49,36,30.12,29.71,19,3,24,0.00
2013-2-22,39.8,32.0,23.8,23.2,18.1,13.2,71,57,38,30.34,30.13,12,1,12,0.00
2013-2-23,38.3,33.5,28.2,30.4,26.9,21.5,92,77,63,30.28,29.87,10,0,10,0.01
2013-2-24,35.8,32.9,30.0,34.2,31.0,28.0,94,93,92,29.87,29.64,11,1,12,0.51
2013-2-25,39.5,33.7,29.3,31.0,28.4,23.8,92,81,63,30.19,29.84,6,0,7,0.33
2013-2-26,43.2,34.8,27.9,34.4,26.9,22.5,93,75,46,30.28,30.11,7,0,7,0.01
2013-2-27,40.6,38.1,34.1,38.5,35.4,27.3,94,90,74,30.11,29.51,20,3,20,1.19
2013-2-28,46.1,38.0,33.1,34.6,32.9,31.3,94,82,61,29.58,29.47,7,0,9,0.01
2013-3-1,39.6,37.1,31.3,33.5,27.6,24.6,91,69,56,29.62,29.47,12,1,12,0.00
2013-3-2,41.3,36.6,30.3,27.3,24.6,22.2,74,62,53,29.62,29.56,11,1,13,0.00
2013-3-3,39.5,34.4,30.9,31.2,25.8,22.4,83,71,62,29.59,29.50,12,1,12,0.00
2013-3-4,38.5,33.4,29.5,26.4,20.9,17.9,80,60,48,29.69,29.52,18,4,26,0.00
2013-3-5,44.2,36.4,30.4,30.9,24.9,19.4,86,64,47,30.01,29.69,18,1,18,0.00
2013-3-6,39.6,35.9,33.4,34.1,30.9,27.8,91,82,64,30.06,29.99,17,3,17,0.14
2013-3-7,35.0,31.4,30.0,29.6,27.4,24.7,91,85,68,30.03,29.94,17,2,20,0.10
2013-3-8,39.3,32.9,28.7,31.0,26.3,19.0,94,79,47,30.10,29.89,11,0,13,0.14
2013-3-9,48.2,36.0,25.3,28.4,21.8,16.3,89,59,32,30.30,30.10,12,1,13,0.23
2013-3-10,44.2,33.0,21.3,30.3,26.2,18.6,92,77,54,30.36,30.25,9,0,9,0.00
2013-3-11,55.1,42.4,34.4,39.3,32.9,29.4,89,71,41,30.27,30.08,13,2,14,0.00
2013-3-12,56.5,50.3,42.2,52.2,46.5,39.2,93,87,73,30.10,29.66,22,2,22,0.30
2013-3-13,52.6,43.4,35.9,50.9,27.1,14.9,94,56,26,29.72,29.63,13,2,15,0.00
2013-3-14,35.9,30.9,22.1,21.9,12.2,3.4,65,46,32,29.78,29.64,22,3,31,0.00
2013-3-15,40.8,29.0,18.9,26.3,8.7,-0.2,73,44,20,29.81,29.57,20,3,25,0.00
2013-3-16,39.3,32.9,26.4,23.0,10.6,2.9,64,41,24,29.83,29.61,14,1,18,0.00
2013-3-17,35.9,28.5,20.8,14.8,6.8,-3.5,74,43,22,30.29,29.83,16,2,17,0.00
2013-3-18,38.5,28.3,15.4,24.9,5.9,-5.1,86,41,20,30.41,30.15,12,1,12,0.00
2013-3-19,33.4,31.1,26.4,31.6,29.1,22.4,96,92,86,30.19,29.57,14,2,16,0.21
2013-3-20,37.6,30.3,24.2,23.6,19.1,15.1,89,65,41,29.76,29.64,26,2,26,0.31
2013-3-21,37.6,29.1,20.3,27.2,19.3,11.3,88,68,35,29.76,29.55,10,0,10,0.17
2013-3-22,39.9,32.4,26.4,24.7,16.9,11.2,89,54,34,29.68,29.55,16,1,18,0.02
2013-3-23,43.2,34.1,26.9,20.1,16.3,10.8,70,50,28,29.72,29.57,22,3,23,0.00
2013-3-24,45.8,37.5,30.7,26.9,20.4,17.3,75,51,35,29.76,29.67,17,2,17,0.00
2013-3-25,41.3,35.6,29.3,30.6,27.2,22.2,83,71,60,29.72,29.48,12,1,12,0.00
2013-3-26,49.5,40.9,34.4,27.5,20.7,14.5,71,47,25,29.72,29.48,14,1,15,0.00
2013-3-27,53.3,41.8,28.4,31.3,21.2,17.0,72,46,26,29.81,29.68,16,2,16,0.00
2013-3-28,47.0,41.4,36.0,34.5,31.2,26.0,88,68,44,29.96,29.81,6,0,6,0.02
2013-3-29,56.9,43.9,33.2,32.3,29.3,22.9,83,59,29,29.99,29.90,12,1,13,0.00
2013-3-30,56.2,46.0,34.7,31.0,20.2,10.1,76,41,16,30.04,29.94,15,2,15,0.00
2013-3-31,52.8,33.5,26.1,25.5,21.3,17.8,83,64,25,30.06,30.02,9,0,10,0.00
2013-4-1,61.5,46.4,35.2,41.6,33.2,5.8,94,64,25,29.72,29.43,7,3,21,0.13
2013-4-2,39.2,33.9,28.7,12.1,8.4,3.8,45,34,24,29.87,29.72,8,4,33,0.00
2013-4-3,45.7,39.6,29.4,13.6,7.5,3.7,44,27,18,30.10,29.86,22,5,31,0.00
2013-4-4,55.7,42.0,27.2,22.6,12.4,5.9,56,33,15,30.24,29.98,21,3,21,0.00
2013-4-5,60.5,45.5,36.3,26.9,23.0,15.9,66,44,18,29.98,29.56,17,3,20,0.00
2013-4-6,39.5,36.6,34.7,20.8,18.4,13.6,51,47,41,29.91,29.82,18,3,20,0.00
2013-4-7,55.3,40.9,24.7,37.5,23.4,12.4,72,52,28,30.29,29.94,10,4,27,0.00
2013-4-8,66.0,51.6,42.6,41.0,36.2,29.2,90,59,25,30.03,29.88,5,1,16,0.00
2013-4-9,70.8,51.9,45.2,48.3,40.9,36.7,92,68,34,30.02,29.80,6,1,19,0.04
2013-4-10,62.4,50.5,44.8,45.8,43.3,39.4,93,78,52,29.95,29.80,6,0,9,0.21
2013-4-11,53.1,46.3,40.3,45.7,35.7,22.5,94,69,38,30.09,29.77,8,1,12,0.06
2013-4-12,40.5,37.6,35.8,36.1,33.1,27.6,93,84,65,30.12,29.74,15,2,15,0.46
2013-4-13,51.9,41.4,34.6,37.7,34.7,31.7,92,79,47,29.88,29.70,10,1,13,0.04
2013-4-14,52.0,45.4,36.3,38.3,29.7,19.8,89,57,32,30.16,29.85,16,2,20,0.00
2013-4-15,36.3,34.6,33.4,26.8,26.5,26.0,74,72,67,30.18,30.16,0,0,1,0.00
2013-4-16,64.7,51.9,36.0,48.7,39.4,32.7,91,64,41,30.34,29.99,10,4,25,0.00
2013-4-17,65.5,57.6,47.4,51.2,33.2,23.6,82,44,21,30.27,29.99,7,2,21,0.00
2013-4-18,61.3,50.1,35.2,41.7,30.5,23.1,80,50,28,30.37,30.09,7,2,22,0.00
2013-4-19,74.7,63.2,52.3,60.5,55.2,42.1,95,76,52,30.09,29.58,11,5,31,0.00
2013-4-20,67.1,52.5,43.9,61.9,28.6,19.3,92,41,30,30.16,29.53,20,3,25,0.57
2013-4-21,52.6,41.6,32.8,28.8,19.4,13.2,78,43,21,30.63,30.16,15,2,16,0.00
2013-4-22,50.7,41.0,29.4,32.5,26.6,15.2,90,60,26,30.71,30.55,12,2,13,0.00
2013-4-23,40.5,38.8,36.2,38.1,32.9,27.9,92,80,68,30.55,30.39,7,1,7,0.01
2013-4-24,76.0,54.4,40.6,47.9,41.6,33.9,93,68,22,30.08,29.72,8,3,22,0.01
2013-4-25,64.7,55.4,44.2,50.9,33.3,19.7,87,49,20,30.20,29.76,6,2,23,0.03
2013-4-26,60.1,49.8,34.1,37.7,33.1,25.8,83,55,28,30.37,30.22,6,0,11,0.00
2013-4-27,65.0,51.2,35.9,39.5,32.9,26.5,92,55,27,30.37,30.23,10,1,12,0.00
2013-4-28,68.9,53.5,36.8,38.9,32.4,23.2,89,50,23,30.28,30.16,12,1,16,0.00
2013-4-29,71.1,58.0,45.2,45.2,34.8,21.5,83,46,22,30.22,30.12,15,1,16,0.00
2013-4-30,70.3,56.5,42.3,35.0,25.2,9.7,71,35,11,30.32,30.20,10,0,12,0.00
2013-5-1,70.6,53.6,35.8,35.8,30.8,22.4,86,48,19,30.41,30.31,11,0,11,0.00
2013-5-2,79.0,54.0,40.2,43.3,37.1,30.5,86,58,19,30.43,30.29,14,1,15,0.00
2013-5-3,59.6,49.8,41.6,41.3,38.3,35.8,84,66,48,30.47,30.33,11,1,13,0.00
2013-5-4,60.2,48.1,36.3,42.8,34.5,15.0,92,65,18,30.33,30.25,11,1,14,0.00
2013-5-5,62.0,44.3,32.7,39.7,34.6,30.4,93,73,38,30.28,30.23,10,0,12,0.00
2013-5-6,71.3,50.4,33.2,46.8,43.4,30.9,94,79,31,30.24,30.09,2,0,11,0.00
2013-5-7,78.5,61.5,42.1,56.1,48.4,40.0,94,66,36,30.11,30.03,9,0,10,0.00
2013-5-8,73.7,61.3,51.0,59.4,55.2,48.8,94,81,56,30.14,29.99,7,0,7,0.04
2013-5-9,67.4,59.3,56.5,61.2,56.6,54.2,95,91,71,30.00,29.83,3,0,4,1.05
2013-5-10,80.1,64.4,54.4,61.2,54.7,50.0,96,74,36,29.90,29.83,10,0,11,0.02
2013-5-11,70.8,63.3,58.7,60.1,56.6,51.9,91,79,62,29.85,29.63,21,2,24,0.05
2013-5-12,72.0,61.2,49.6,59.5,47.1,26.7,94,64,31,29.75,29.50,16,1,19,0.16
2013-5-13,59.3,49.4,37.3,33.3,27.3,22.1,84,45,25,29.97,29.75,14,1,20,0.00
2013-5-14,58.7,49.5,36.5,32.8,28.0,22.5,80,46,26,29.99,29.91,13,1,13,0.00
2013-5-15,65.8,51.4,34.1,49.9,37.0,25.1,89,63,25,30.00,29.61,17,1,20,0.00
2013-5-16,81.1,66.2,45.4,49.2,37.7,26.3,94,45,17,29.75,29.56,17,2,22,0.01
2013-5-17,69.6,59.3,47.3,42.2,38.1,30.5,82,47,27,30.16,29.75,12,1,12,0.00
2013-5-18,72.7,58.5,42.8,47.8,41.1,31.1,91,58,22,30.25,30.16,6,0,9,0.00
2013-5-19,73.5,56.9,47.3,53.7,49.0,44.6,94,77,38,30.29,30.16,10,0,10,0.08
2013-5-20,82.4,67.2,55.3,61.9,58.2,53.6,95,76,47,30.16,29.85,10,1,11,0.05
2013-5-21,79.2,59.7,50.5,63.2,54.8,47.7,94,84,56,29.96,29.81,10,0,12,0.00
2013-5-22,67.3,56.0,49.5,58.7,52.1,47.6,95,87,71,30.01,29.84,9,0,9,0.25
2013-5-23,76.7,64.2,53.2,66.9,59.5,51.2,96,85,68,29.88,29.75,17,1,18,0.22
2013-5-24,72.0,62.0,48.3,65.2,58.7,46.4,95,89,68,29.77,29.59,12,0,12,0.45
2013-5-25,50.5,46.5,40.5,48.8,44.7,36.9,95,93,87,29.76,29.65,10,1,13,0.47
2013-5-26,56.9,48.0,39.1,40.8,36.9,33.5,92,68,43,30.03,29.65,15,2,15,0.09
2013-5-27,72.5,57.1,38.0,43.7,36.2,27.8,93,53,20,30.12,30.01,12,1,15,0.00
2013-5-28,74.6,58.9,40.9,50.1,41.8,32.7,94,60,25,30.18,30.10,9,0,10,0.00
2013-5-29,70.3,62.1,56.9,62.0,58.1,49.2,95,87,74,30.13,29.92,9,0,9,1.29
2013-5-30,89.3,74.9,62.4,66.4,62.7,58.3,96,70,37,30.01,29.93,11,1,14,0.00
2013-5-31,94.9,80.4,64.2,66.9,62.2,55.4,93,59,27,30.02,29.86,15,1,15,0.00
2013-6-1,93.8,81.1,68.3,66.2,62.5,57.5,77,55,31,29.90,29.78,16,2,18,0.00
2013-6-2,90.5,78.6,69.3,66.9,63.4,56.5,83,62,33,29.81,29.64,23,3,27,0.00
2013-6-3,79.2,69.3,59.9,66.4,60.2,44.7,94,75,46,29.78,29.68,10,1,13,0.43
2013-6-4,71.6,60.3,47.6,46.4,42.1,38.6,82,53,31,30.04,29.76,11,1,12,0.00
2013-6-5,76.8,63.6,48.5,49.7,45.0,38.7,89,54,27,30.13,30.03,9,0,10,0.00
2013-6-6,76.1,63.9,52.5,53.4,47.8,42.4,84,57,36,30.13,30.04,9,0,10,0.01
2013-6-7,59.2,54.8,53.1,55.0,52.8,51.5,97,93,81,30.06,29.76,9,0,9,1.57
2013-6-8,79.0,63.0,52.6,61.5,55.8,51.2,96,80,50,29.94,29.57,15,1,16,0.84
2013-6-9,80.5,67.4,54.7,56.8,53.7,49.4,95,66,35,30.10,29.94,13,0,13,0.00
2013-6-10,68.9,61.6,54.2,57.0,54.9,51.9,94,80,59,30.15,29.97,7,0,7,0.58
2013-6-11,62.0,57.6,55.1,57.2,55.0,53.7,95,91,79,29.97,29.52,6,0,7,0.78
2013-6-12,69.8,61.8,55.7,57.3,53.2,50.3,95,75,53,29.75,29.50,18,1,21,0.06
2013-6-13,68.9,57.3,50.8,56.4,52.4,48.8,94,85,53,29.75,29.62,7,0,7,0.62
2013-6-14,75.6,60.8,51.7,56.2,52.5,49.2,95,77,42,29.70,29.59,5,0,6,0.79
2013-6-15,80.1,62.5,54.1,52.4,47.4,38.3,89,61,23,29.87,29.70,9,0,12,0.00
2013-6-16,76.8,66.6,53.3,60.2,51.9,46.7,80,61,37,29.87,29.65,12,1,14,0.00
2013-6-17,85.9,69.0,56.9,64.6,58.4,50.4,94,73,32,29.84,29.71,16,1,16,0.76
2013-6-18,74.6,63.9,57.5,63.3,58.8,56.1,96,85,58,29.88,29.82,12,0,12,0.03
2013-6-19,77.2,63.7,55.3,56.4,50.8,44.2,95,68,31,30.08,29.86,1,0,7,0.18
2013-6-20,79.4,63.5,49.2,54.7,48.7,41.4,94,65,30,30.20,30.09,2,0,11,0.00
2013-6-21,85.9,77.2,58.1,61.3,54.9,47.4,83,50,27,30.18,30.12,10,0,13,0.00
2013-6-22,84.9,73.6,61.5,63.0,57.9,54.0,83,60,36,30.15,30.04,15,1,15,0.00
2013-6-23,89.7,77.5,65.6,70.1,62.8,55.0,73,61,48,30.09,29.91,17,2,19,0.00
2013-6-24,94.9,80.3,70.4,69.2,67.2,65.6,89,67,41,29.95,29.81,12,2,14,0.00
2013-6-25,92.3,79.1,69.1,68.9,65.7,63.4,90,66,39,29.90,29.65,4,1,15,0.00
2013-6-26,84.9,72.9,65.8,72.5,68.8,63.7,93,87,57,29.79,29.65,6,0,16,0.35
2013-6-27,73.5,65.1,60.4,65.4,62.2,59.0,96,91,74,29.81,29.70,2,0,3,0.08
2013-6-28,83.6,70.5,58.4,73.3,65.2,57.0,97,85,60,29.70,29.42,17,1,17,0.34
2013-6-29,84.3,76.0,70.4,68.7,66.6,63.8,91,74,53,29.66,29.45,17,2,19,0.00
2013-6-30,86.5,76.6,68.8,70.7,67.6,65.7,92,75,53,29.87,29.66,14,1,14,0.00
2013-7-1,84.3,74.8,71.1,73.1,70.4,67.7,94,87,64,30.01,29.87,9,0,9,0.23
2013-7-2,83.0,72.2,60.5,71.7,67.0,58.2,94,84,62,30.15,30.00,10,0,11,0.00
2013-7-3,89.5,74.8,60.4,71.5,66.2,58.4,95,76,49,30.15,30.06,12,2,16,0.00
2013-7-4,93.4,83.0,72.7,72.5,70.5,67.7,92,68,45,30.13,30.02,12,1,12,0.00
2013-7-5,94.9,84.8,75.3,73.4,70.7,67.4,86,64,42,30.08,29.96,14,1,14,0.00
2013-7-6,91.6,82.7,74.9,72.1,68.3,61.0,88,64,41,30.00,29.91,11,1,17,0.00
2013-7-7,92.3,79.1,66.6,74.6,67.7,60.1,89,70,48,29.95,29.83,7,0,7,0.02
2013-7-8,86.1,76.0,65.0,72.9,69.3,62.3,94,81,58,30.01,29.83,5,0,5,0.05
2013-7-9,73.2,68.4,64.2,65.7,63.9,61.5,94,86,76,30.05,29.99,2,0,3,0.01
2013-7-10,86.7,73.9,66.4,73.1,68.3,62.6,94,84,60,30.01,29.72,12,0,17,0.01
2013-7-11,83.4,75.7,71.1,73.6,70.1,66.0,94,83,63,29.86,29.70,6,0,9,0.03
2013-7-12,78.3,70.3,65.5,68.5,58.1,52.1,94,67,41,30.14,29.86,5,0,9,0.00
2013-7-13,81.1,71.4,64.7,68.4,63.5,56.8,93,77,63,30.25,30.14,4,0,4,0.02
2013-7-14,92.7,78.8,67.6,72.5,69.1,64.5,95,75,41,30.24,30.14,4,0,5,0.00
2013-7-15,91.8,80.4,70.4,72.2,69.7,65.3,95,73,43,30.14,30.02,5,0,6,0.00
2013-7-16,94.7,80.7,68.3,70.8,66.1,61.2,91,65,34,30.10,30.04,9,0,9,0.00
2013-7-17,95.9,82.7,68.9,72.9,67.7,61.8,92,64,35,30.11,29.91,11,1,11,0.00
2013-7-18,94.0,82.3,74.9,72.4,68.8,64.4,87,66,38,29.94,29.87,7,0,7,0.00
2013-7-19,97.1,86.0,73.0,75.8,70.6,66.1,88,63,38,29.87,29.64,22,2,22,0.00
2013-7-20,92.5,83.4,74.4,76.3,71.2,62.3,86,68,45,29.74,29.57,13,1,15,0.09
2013-7-21,84.1,74.0,65.6,65.9,62.3,55.1,90,69,42,29.92,29.74,6,0,6,0.00
2013-7-22,84.3,72.5,64.7,68.7,65.2,62.7,96,80,51,29.95,29.83,5,0,5,0.00
2013-7-23,79.4,71.9,68.8,76.6,69.7,64.9,96,93,79,29.83,29.48,9,0,14,1.73
2013-7-24,84.9,76.1,65.5,72.3,65.4,51.8,96,72,45,29.90,29.52,11,0,13,0.01
2013-7-25,65.5,59.7,57.8,57.5,52.3,46.1,95,77,59,30.05,29.90,6,0,7,0.45
2013-7-26,70.1,64.2,58.9,67.0,61.6,57.5,96,91,77,30.01,29.87,6,0,7,0.15
2013-7-27,84.9,72.1,58.1,64.2,60.8,56.3,95,71,41,29.99,29.92,10,0,10,0.00
2013-7-28,81.1,70.9,64.3,68.6,65.2,61.5,94,83,64,29.96,29.90,4,0,5,0.00
2013-7-29,86.5,73.5,66.1,69.3,66.3,63.7,95,80,49,29.98,29.89,7,0,10,0.01
2013-7-30,82.6,72.1,59.9,65.8,57.5,50.9,95,65,35,30.02,29.96,7,0,9,0.01
2013-7-31,83.0,71.7,59.9,60.5,57.1,50.9,92,63,35,30.07,29.98,2,0,7,0.00
2013-8-1,83.4,73.7,60.4,63.5,60.7,58.1,95,65,44,29.98,29.81,18,1,18,0.01
2013-8-2,83.8,71.6,63.9,67.0,61.3,52.2,95,73,36,29.81,29.72,10,0,13,0.65
2013-8-3,79.6,70.2,62.9,63.4,60.9,57.2,94,74,49,29.80,29.71,13,1,14,0.00
2013-8-4,79.9,68.1,57.2,59.1,54.8,50.4,88,65,38,29.83,29.70,9,0,11,0.00
2013-8-5,76.8,64.0,52.5,52.0,46.6,35.9,92,58,24,29.99,29.82,11,0,11,0.00
2013-8-6,80.7,64.0,49.2,54.4,49.8,44.4,93,65,28,30.09,29.99,6,0,6,0.00
2013-8-7,82.2,68.9,53.9,58.8,53.0,46.1,94,61,31,30.12,30.04,10,0,11,0.00
2013-8-8,81.4,72.3,65.3,69.0,64.5,53.2,92,77,62,30.07,29.94,13,1,13,0.04
2013-8-9,74.6,72.7,70.8,73.1,70.3,67.3,95,92,85,29.96,29.68,10,0,14,1.03
2013-8-10,83.8,73.4,60.9,70.6,60.0,53.4,96,67,36,29.95,29.72,12,0,15,0.01
2013-8-11,80.9,67.3,53.6,58.6,53.3,47.5,94,65,34,30.02,29.94,10,0,10,0.00
2013-8-12,83.6,70.4,58.6,59.8,56.1,48.8,93,65,33,29.96,29.85,10,0,10,0.00
2013-8-13,77.4,68.6,64.0,66.9,62.4,59.6,89,81,56,29.86,29.63,4,0,5,0.02
2013-8-14,74.9,64.2,58.9,62.2,51.4,48.7,94,65,40,29.90,29.59,4,0,18,0.00
2013-8-15,78.3,64.9,51.0,53.8,49.7,44.2,93,62,32,30.05,29.90,10,0,12,0.00
2013-8-16,64.3,56.2,53.3,53.8,51.9,50.7,92,86,68,30.08,30.04,4,0,4,0.00
2013-8-17,82.6,67.2,54.5,59.2,55.5,52.2,93,69,42,30.21,30.13,1,0,6,0.00
2013-8-18,79.0,68.1,56.3,60.7,57.6,54.3,94,71,48,30.21,30.02,2,0,10,0.00
2013-8-19,82.0,70.5,58.3,62.2,58.6,54.6,94,69,39,30.01,29.89,1,0,9,0.00
2013-8-20,87.2,73.7,61.0,63.4,59.6,54.9,91,65,35,30.02,29.91,1,0,9,0.00
2013-8-21,88.8,74.7,61.0,63.7,61.3,58.2,92,67,36,30.08,29.96,2,0,11,0.00
2013-8-22,87.4,74.4,65.0,69.0,66.4,61.2,88,77,42,29.97,29.75,12,1,15,0.00
2013-8-23,82.0,72.7,62.6,68.1,56.3,46.8,90,58,31,30.07,29.76,9,0,9,0.00
2013-8-24,79.6,64.2,53.3,49.9,46.1,39.3,82,56,25,30.27,30.07,4,0,7,0.00
2013-8-25,84.3,66.4,50.8,54.2,49.6,42.7,92,61,26,30.31,30.12,10,0,14,0.00
2013-8-26,81.2,71.8,64.2,64.9,60.2,53.5,79,67,51,30.12,29.80,14,1,18,0.00
2013-8-27,87.4,76.0,66.4,67.8,65.1,62.5,93,71,46,29.84,29.76,5,0,5,0.00
2013-8-28,88.2,73.9,61.0,66.2,63.2,59.3,95,72,46,29.92,29.79,5,0,6,0.00
2013-8-29,65.5,65.0,64.5,63.1,62.6,62.1,93,92,91,29.96,29.89,3,0,4,0.00
2013-8-30,84.1,72.3,59.8,66.5,63.6,56.3,90,75,50,29.97,29.75,7,1,12,0.00
2013-8-31,81.1,74.3,69.3,71.9,68.8,65.5,94,83,70,29.76,29.71,11,1,12,0.04
2013-9-1,81.1,74.0,69.6,72.1,69.5,65.5,94,86,72,29.82,29.72,11,1,12,0.23
2013-9-2,79.9,74.4,72.0,74.2,69.9,67.1,93,86,71,29.81,29.65,9,0,10,0.04
2013-9-3,81.1,73.4,63.2,70.6,65.6,55.5,94,78,57,29.74,29.62,10,1,16,0.00
2013-9-4,82.2,68.4,56.7,57.5,54.1,50.5,93,64,34,29.85,29.74,10,0,12,0.00
2013-9-5,71.1,62.7,51.0,60.8,49.5,35.7,92,66,28,30.09,29.79,6,0,7,0.03
2013-9-6,71.1,58.1,41.9,43.5,39.4,32.9,93,56,28,30.19,30.06,10,0,10,0.00
2013-9-7,80.1,63.7,48.8,56.0,47.7,43.6,83,59,31,30.03,29.79,3,0,12,0.00
2013-9-8,73.2,63.6,49.8,59.2,50.2,37.8,93,65,32,30.03,29.68,2,1,12,0.07
2013-9-9,69.8,56.5,41.3,48.6,42.0,38.2,91,62,32,30.17,30.03,3,1,15,0.00
2013-9-10,74.9,69.1,56.0,68.9,64.3,48.3,93,85,72,30.09,29.96,3,0,16,0.10
2013-9-11,96.8,81.5,69.3,74.9,69.3,62.9,95,70,40,30.00,29.86,13,1,15,0.00
2013-9-12,89.5,77.3,66.6,71.4,67.4,63.3,94,73,47,29.89,29.59,20,1,21,0.80
2013-9-13,80.3,67.4,58.9,68.2,62.7,51.8,96,86,54,29.69,29.50,7,0,10,0.41
2013-9-14,67.6,60.2,51.7,52.5,50.5,48.5,89,71,55,30.00,29.69,10,0,10,0.00
2013-9-15,72.3,59.3,46.5,51.6,46.9,43.1,95,67,38,30.09,29.99,9,0,11,0.00
2013-9-16,68.4,57.6,47.0,53.0,48.0,36.3,84,71,51,30.19,29.94,7,0,7,0.00
2013-9-17,65.2,50.4,38.6,43.9,37.0,32.0,89,63,35,30.36,30.19,7,0,11,0.00
2013-9-18,75.3,56.2,40.8,47.0,42.2,36.2,95,66,25,30.27,30.08,7,0,9,0.00
2013-9-19,70.3,53.2,47.0,51.0,46.9,44.6,92,80,49,30.08,30.04,3,0,4,0.00
2013-9-20,81.8,62.3,48.2,56.7,51.9,46.6,95,73,35,30.02,29.93,1,0,5,0.00
2013-9-21,75.6,67.9,50.8,63.9,60.5,48.6,96,78,51,29.97,29.66,15,1,19,0.01
2013-9-22,71.1,64.7,52.9,65.8,55.5,41.5,95,74,42,29.77,29.53,18,1,18,0.54
2013-9-23,62.7,52.8,42.9,42.6,39.6,37.1,87,62,44,29.95,29.77,11,0,11,0.00
2013-9-24,67.1,52.9,40.1,44.2,40.3,37.0,90,66,36,29.93,29.75,10,0,10,0.00
2013-9-25,68.3,53.8,42.9,49.2,45.1,40.7,93,74,46,29.93,29.82,6,0,6,0.00
2013-9-26,69.1,57.7,51.6,49.7,46.7,43.0,87,69,43,30.07,29.93,5,0,5,0.00
2013-9-27,66.6,57.8,49.8,52.0,49.7,47.9,93,75,54,30.20,30.07,4,0,5,0.00
2013-9-28,73.3,57.3,45.5,54.7,49.0,43.9,96,77,43,30.27,30.20,5,0,5,0.00
2013-9-29,70.8,53.9,44.8,54.5,46.9,41.9,96,80,37,30.20,30.06,5,0,8,0.01
2013-9-30,69.6,55.2,47.3,51.8,47.9,44.6,95,80,42,30.07,29.90,3,0,4,0.00
2013-10-1,78.1,60.4,43.6,55.1,49.1,42.0,96,71,32,29.90,29.78,5,0,9,0.00
2013-10-2,80.5,65.5,51.9,58.7,55.2,50.2,94,72,44,29.89,29.76,11,0,12,0.00
2013-10-3,77.9,63.0,51.9,54.7,49.1,38.7,92,65,27,30.02,29.89,7,0,11,0.00
2013-10-4,61.8,56.3,49.2,57.6,53.1,46.7,95,89,80,30.03,29.97,2,0,3,0.20
2013-10-5,69.3,60.8,55.9,58.9,55.4,53.4,96,83,60,30.06,30.00,3,0,3,0.00
2013-10-6,58.9,55.5,52.8,55.8,53.8,51.1,96,94,84,30.17,30.05,3,0,4,0.41
2013-10-7,77.6,65.2,56.6,70.4,60.8,52.5,97,86,64,30.06,29.74,17,1,24,0.07
2013-10-8,65.6,55.6,42.9,52.9,42.3,35.0,86,63,33,30.33,29.85,12,0,12,0.00
2013-10-9,62.0,48.6,39.9,45.2,40.5,37.5,93,76,44,30.42,30.31,5,0,6,0.00
2013-10-10,62.4,50.4,39.3,50.8,45.4,37.7,96,84,61,30.31,30.11,4,0,4,0.00
2013-10-11,50.2,47.2,44.9,48.8,45.7,43.3,96,94,93,30.11,30.07,1,0,1,0.00
2013-10-12,58.6,52.9,45.7,54.9,49.2,43.5,96,87,77,30.34,30.09,1,0,7,0.00
2013-10-13,61.6,43.5,37.9,50.0,39.9,35.8,95,88,48,30.39,30.32,1,0,4,0.00
2013-10-14,67.3,48.7,34.1,48.1,39.7,32.3,96,76,31,30.34,30.19,7,0,7,0.00
2013-10-15,64.7,55.3,47.6,52.7,48.8,44.5,94,80,60,30.20,30.11,3,0,4,0.00
2013-10-16,61.3,54.1,47.4,55.2,50.3,45.8,96,88,66,30.12,29.85,3,0,4,0.01
2013-10-17,74.6,60.8,51.3,58.5,54.1,49.6,96,81,46,29.85,29.64,10,0,11,0.03
2013-10-18,66.9,59.2,44.1,59.9,48.5,39.3,95,71,40,29.85,29.54,23,1,23,0.01
2013-10-19,67.9,53.9,40.8,45.0,40.1,36.5,89,63,32,29.91,29.67,11,0,13,0.00
2013-10-20,61.5,52.3,38.5,49.2,37.5,28.7,93,60,29,29.96,29.62,15,1,15,0.00
2013-10-21,67.9,50.9,34.6,42.1,36.8,31.7,92,63,31,30.05,29.92,13,0,13,0.00
2013-10-22,65.5,53.2,41.2,50.9,43.0,35.0,94,70,48,29.92,29.64,15,1,18,0.00
2013-10-23,51.4,44.4,35.5,35.2,32.6,28.7,89,65,42,29.74,29.53,5,0,5,0.00
2013-10-24,53.2,41.6,34.6,33.8,29.0,21.2,83,62,30,29.84,29.58,14,0,18,0.00
2013-10-25,49.6,39.7,30.3,32.3,26.6,22.8,89,62,35,30.09,29.84,10,0,14,0.00
2013-10-26,55.6,43.6,29.3,35.1,27.5,19.7,90,57,25,30.08,29.79,21,2,22,0.00
2013-10-27,55.1,46.4,36.3,38.9,31.8,25.2,86,59,34,30.02,29.74,13,1,17,0.03
2013-10-28,58.0,43.6,31.0,32.6,28.0,21.6,86,57,31,30.31,30.01,12,1,20,0.00
2013-10-29,49.2,35.2,26.3,27.1,22.0,13.9,83,62,25,30.39,30.28,4,0,6,0.00
2013-10-30,51.1,36.9,29.7,39.4,31.7,25.5,92,82,63,30.29,30.13,3,0,3,0.03
2013-10-31,61.3,45.8,29.8,57.8,43.1,28.0,95,90,77,30.18,29.74,12,0,12,0.17
2013-11-1,71.1,64.2,55.9,61.4,55.6,50.6,93,74,58,29.72,29.39,39,5,39,0.06
2013-11-2,67.4,55.4,44.3,51.0,42.7,36.5,91,66,33,29.66,29.52,10,0,10,0.01
2013-11-3,50.4,40.8,30.9,45.8,26.3,11.4,84,58,28,30.36,29.66,9,1,9,0.00
2013-11-4,42.2,31.9,23.6,18.0,14.2,9.5,78,50,26,30.65,30.34,5,0,6,0.00
2013-11-5,51.8,36.2,22.1,34.3,27.2,17.5,90,72,42,30.66,30.45,4,0,4,0.00
2013-11-6,62.9,50.3,38.7,49.3,41.1,32.5,86,72,48,30.47,29.97,5,1,5,0.00
2013-11-7,65.8,54.2,38.8,57.6,48.8,28.3,91,82,56,30.00,29.60,11,1,11,0.61
2013-11-8,47.6,38.9,29.1,30.4,24.1,18.6,80,56,41,30.02,29.74,14,1,14,0.00
2013-11-9,44.1,38.1,29.0,26.9,20.7,15.7,68,50,32,30.15,29.97,12,1,12,0.00
2013-11-10,53.3,44.6,39.8,41.3,33.8,25.9,92,67,47,30.00,29.67,11,1,16,0.06
2013-11-11,52.8,45.1,38.8,29.8,25.0,19.9,62,46,28,30.03,29.76,16,2,20,0.00
2013-11-12,48.2,35.1,26.4,37.7,21.8,12.6,88,59,44,30.12,29.82,15,2,17,0.09
2013-11-13,35.9,28.1,21.8,13.7,10.9,5.7,69,49,29,30.23,30.10,14,1,14,0.00
2013-11-14,51.4,39.0,28.5,24.8,17.5,11.9,57,43,27,30.12,29.97,14,1,15,0.00
2013-11-15,61.0,43.0,30.1,30.7,18.7,9.6,61,40,13,30.13,30.03,10,1,12,0.00
2013-11-16,62.3,46.2,32.7,30.4,25.5,18.7,76,48,20,30.26,30.11,7,0,7,0.00
2013-11-17,53.6,42.9,29.7,51.7,37.5,24.6,95,81,66,30.25,29.77,2,0,2,0.03
2013-11-18,65.6,58.1,47.7,61.0,44.5,27.3,96,64,38,29.77,29.45,18,2,21,0.22
2013-11-19,48.2,38.8,30.9,29.5,18.9,13.1,53,45,33,30.22,29.58,22,4,22,0.00
2013-11-20,37.5,28.1,22.2,15.4,12.9,9.6,70,53,31,30.57,30.22,19,2,19,0.00
2013-11-21,47.7,32.8,18.8,27.0,17.3,13.1,82,56,27,30.59,30.31,11,0,12,0.00
2013-11-22,45.2,42.2,38.0,43.6,38.7,27.0,96,88,61,30.31,29.75,4,0,5,0.20
2013-11-23,45.5,39.2,29.1,44.3,24.0,12.1,96,57,28,29.85,29.71,20,4,20,0.01
2013-11-24,29.1,23.6,19.7,13.6,-0.9,-10.6,60,35,20,30.13,29.72,29,6,29,0.00
2013-11-25,33.2,24.3,15.6,12.7,-2.9,-14.6,48,31,14,30.31,30.13,18,2,18,0.00
2013-11-26,39.2,34.5,30.0,32.8,19.5,11.3,92,56,41,30.28,29.99,15,1,18,0.11
2013-11-27,62.3,50.6,34.9,59.7,48.1,30.1,96,91,73,29.99,29.14,24,3,31,1.39
2013-11-28,37.5,30.4,23.5,31.9,12.7,0.1,80,49,27,30.38,29.37,25,3,26,0.00
2013-11-29,32.8,25.2,19.1,14.9,7.1,-1.2,77,48,27,30.69,30.37,10,1,12,0.00
2013-11-30,34.6,24.0,13.8,20.4,12.0,4.9,74,60,43,30.74,30.37,8,0,9,0.00
2013-12-1,36.3,33.5,28.8,35.0,29.8,20.3,95,86,69,30.37,29.95,5,0,5,0.11
2013-12-2,38.2,36.5,35.2,36.9,35.2,33.9,96,95,94,29.95,29.86,5,0,5,0.01
2013-12-3,48.0,38.0,31.2,36.1,32.1,26.9,98,81,50,29.89,29.79,7,0,8,0.00
2013-12-4,41.9,33.6,27.5,28.6,25.2,21.9,92,73,48,30.14,29.89,8,1,12,0.00
2013-12-5,46.8,38.0,27.9,45.7,34.3,24.5,96,86,76,30.15,29.85,7,0,8,0.00
2013-12-6,55.6,46.8,32.8,53.9,41.0,27.1,97,81,49,30.09,29.79,12,1,13,0.26
2013-12-7,38.3,32.4,24.7,32.2,24.3,15.2,93,74,45,30.39,30.02,13,1,16,0.17
2013-12-8,29.1,25.9,19.7,18.9,14.5,11.1,81,62,47,30.54,30.39,5,0,6,0.00
2013-12-9,35.5,30.8,24.4,34.0,27.8,13.9,95,89,56,30.45,29.82,5,0,5,0.01
2013-12-10,34.1,30.8,24.5,31.5,25.4,9.9,95,81,48,29.93,29.73,18,1,18,0.05
2013-12-11,31.8,25.4,20.3,17.0,14.2,10.4,78,63,43,30.15,29.93,18,2,21,0.01
2013-12-12,24.5,19.5,11.9,16.0,3.4,-5.7,79,52,27,30.22,30.00,18,1,18,0.00
2013-12-13,28.2,20.1,12.6,16.4,7.1,-5.5,71,57,43,30.34,29.93,19,2,19,0.00
2013-12-14,24.7,13.2,8.3,22.2,0.8,-9.6,90,59,40,30.56,30.11,7,0,7,0.00
2013-12-15,32.8,26.0,19.4,31.5,23.1,16.7,95,89,78,30.11,29.38,11,1,15,0.00
2013-12-16,27.2,22.5,13.6,19.5,9.6,2.5,83,59,35,30.15,29.68,16,1,19,0.06
2013-12-17,18.3,10.9,0.3,14.8,4.1,-6.0,88,74,54,30.24,29.91,10,0,10,0.00
2013-12-18,34.1,24.6,14.3,19.1,15.9,9.8,83,70,47,30.01,29.82,11,1,14,0.00
2013-12-19,42.9,32.7,24.5,23.7,20.5,17.1,74,62,40,30.05,29.89,18,2,18,0.18
2013-12-20,53.1,41.6,28.8,33.1,29.1,23.3,85,62,43,30.06,29.83,15,2,15,0.47
2013-12-21,58.1,49.8,43.1,46.0,40.0,30.8,81,69,58,29.89,29.79,18,2,18,0.00
2013-12-22,53.1,39.6,32.4,50.2,37.6,31.1,95,93,81,29.97,29.74,10,0,14,0.02
2013-12-23,36.3,32.6,30.7,35.3,31.5,29.4,96,96,95,30.02,29.90,6,0,6,0.47
2013-12-24,36.2,31.4,25.8,35.2,18.4,8.4,96,59,42,30.14,29.99,11,1,15,0.00
2013-12-25,25.8,17.6,12.1,10.4,2.0,-4.8,75,51,34,30.50,30.14,18,2,21,0.00
2013-12-26,31.0,23.3,14.1,26.3,17.9,7.9,89,80,70,30.45,30.03,5,0,5,0.00
2013-12-27,33.4,27.0,21.0,19.7,17.6,15.8,86,69,52,30.21,30.13,12,1,13,0.04
2013-12-28,47.1,33.6,24.8,25.3,21.9,18.0,80,64,39,30.15,29.92,19,1,20,0.01
2013-12-29,42.1,36.4,27.9,36.2,30.8,22.1,94,81,57,29.97,29.35,12,1,12,1.11
2013-12-30,41.3,32.3,16.7,33.5,21.1,4.5,94,66,30,30.11,29.45,19,2,20,0.01
2013-12-31,24.8,17.5,11.6,12.8,1.2,-9.5,70,49,35,30.12,29.97,11,1,12,0.00
2014-1-1,26.3,20.0,12.9,11.0,4.7,1.4,71,52,36,30.33,30.12,13,1,13,0.00
2014-1-2,19.2,9.7,-0.6,12.9,4.4,-6.6,83,78,66,30.31,29.82,15,2,15,0.00